sensor_id;sensor_type;location;lat;lon;timestamp;temperature;humidity
72380;SHT30;60354;47.798;12.472;2023-03-11T00:00:16;4.34;76.77
72380;SHT30;60354;47.798;12.472;2023-03-11T00:02:44;4.42;76.51
72380;SHT30;60354;47.798;12.472;2023-03-11T00:05:23;4.38;75.95
72380;SHT30;60354;47.798;12.472;2023-03-11T00:07:49;4.32;76.31
72380;SHT30;60354;47.798;12.472;2023-03-11T00:10:18;4.34;76.40
72380;SHT30;60354;47.798;12.472;2023-03-11T00:12:44;4.22;77.82
72380;SHT30;60354;47.798;12.472;2023-03-11T00:15:10;3.98;79.65
72380;SHT30;60354;47.798;12.472;2023-03-11T00:17:36;3.40;80.28
72380;SHT30;60354;47.798;12.472;2023-03-11T00:20:02;2.97;81.63
72380;SHT30;60354;47.798;12.472;2023-03-11T00:22:29;2.74;81.96
72380;SHT30;60354;47.798;12.472;2023-03-11T00:24:54;2.78;82.97
72380;SHT30;60354;47.798;12.472;2023-03-11T00:27:20;2.68;81.89
72380;SHT30;60354;47.798;12.472;2023-03-11T00:29:45;2.73;80.91
72380;SHT30;60354;47.798;12.472;2023-03-11T00:32:11;2.80;80.09
72380;SHT30;60354;47.798;12.472;2023-03-11T00:34:36;2.87;79.57
72380;SHT30;60354;47.798;12.472;2023-03-11T00:37:02;2.77;79.17
72380;SHT30;60354;47.798;12.472;2023-03-11T00:39:28;2.84;78.96
72380;SHT30;60354;47.798;12.472;2023-03-11T00:41:54;2.78;79.44
72380;SHT30;60354;47.798;12.472;2023-03-11T00:44:21;2.85;79.55
72380;SHT30;60354;47.798;12.472;2023-03-11T00:46:48;2.80;77.98
72380;SHT30;60354;47.798;12.472;2023-03-11T00:49:14;2.88;79.81
72380;SHT30;60354;47.798;12.472;2023-03-11T00:51:39;2.94;78.52
72380;SHT30;60354;47.798;12.472;2023-03-11T00:54:05;2.92;77.90
72380;SHT30;60354;47.798;12.472;2023-03-11T00:56:31;2.88;77.02
72380;SHT30;60354;47.798;12.472;2023-03-11T00:58:56;2.91;77.87
72380;SHT30;60354;47.798;12.472;2023-03-11T01:01:23;2.89;77.26
72380;SHT30;60354;47.798;12.472;2023-03-11T01:03:49;2.94;76.28
72380;SHT30;60354;47.798;12.472;2023-03-11T01:06:15;2.97;77.56
72380;SHT30;60354;47.798;12.472;2023-03-11T01:08:41;2.95;75.81
72380;SHT30;60354;47.798;12.472;2023-03-11T01:11:07;2.98;75.25
72380;SHT30;60354;47.798;12.472;2023-03-11T01:13:32;2.91;74.11
72380;SHT30;60354;47.798;12.472;2023-03-11T01:15:59;2.89;74.38
72380;SHT30;60354;47.798;12.472;2023-03-11T01:18:25;2.97;74.48
72380;SHT30;60354;47.798;12.472;2023-03-11T01:20:52;2.99;74.12
72380;SHT30;60354;47.798;12.472;2023-03-11T01:23:18;2.99;75.18
72380;SHT30;60354;47.798;12.472;2023-03-11T01:25:44;2.97;73.83
72380;SHT30;60354;47.798;12.472;2023-03-11T01:28:10;2.95;74.25
72380;SHT30;60354;47.798;12.472;2023-03-11T01:30:37;2.94;75.26
72380;SHT30;60354;47.798;12.472;2023-03-11T01:33:03;2.94;74.81
72380;SHT30;60354;47.798;12.472;2023-03-11T01:35:30;2.98;76.20
72380;SHT30;60354;47.798;12.472;2023-03-11T01:37:57;2.91;75.10
72380;SHT30;60354;47.798;12.472;2023-03-11T01:40:33;2.98;75.21
72380;SHT30;60354;47.798;12.472;2023-03-11T01:43:06;3.02;74.80
72380;SHT30;60354;47.798;12.472;2023-03-11T01:48:07;2.97;74.27
72380;SHT30;60354;47.798;12.472;2023-03-11T01:50:43;3.02;76.40
72380;SHT30;60354;47.798;12.472;2023-03-11T01:53:09;3.05;75.99
72380;SHT30;60354;47.798;12.472;2023-03-11T01:55:36;2.99;75.44
72380;SHT30;60354;47.798;12.472;2023-03-11T01:58:04;3.04;74.72
72380;SHT30;60354;47.798;12.472;2023-03-11T02:00:30;2.98;77.19
72380;SHT30;60354;47.798;12.472;2023-03-11T02:02:57;2.97;75.63
72380;SHT30;60354;47.798;12.472;2023-03-11T02:05:25;2.95;76.46
72380;SHT30;60354;47.798;12.472;2023-03-11T02:07:52;2.85;76.09
72380;SHT30;60354;47.798;12.472;2023-03-11T02:10:20;2.85;75.82
72380;SHT30;60354;47.798;12.472;2023-03-11T02:12:48;2.97;76.17
72380;SHT30;60354;47.798;12.472;2023-03-11T02:15:20;3.02;75.92
72380;SHT30;60354;47.798;12.472;2023-03-11T02:17:45;2.97;75.04
72380;SHT30;60354;47.798;12.472;2023-03-11T02:20:13;2.87;75.93
72380;SHT30;60354;47.798;12.472;2023-03-11T02:22:41;2.91;77.77
72380;SHT30;60354;47.798;12.472;2023-03-11T02:27:46;2.80;77.31
72380;SHT30;60354;47.798;12.472;2023-03-11T02:30:14;2.77;78.20
72380;SHT30;60354;47.798;12.472;2023-03-11T02:32:43;2.70;78.06
72380;SHT30;60354;47.798;12.472;2023-03-11T02:35:12;2.67;78.80
72380;SHT30;60354;47.798;12.472;2023-03-11T02:37:43;2.68;78.20
72380;SHT30;60354;47.798;12.472;2023-03-11T02:40:34;2.71;80.15
72380;SHT30;60354;47.798;12.472;2023-03-11T02:43:07;2.71;79.52
72380;SHT30;60354;47.798;12.472;2023-03-11T02:45:34;2.70;77.48
72380;SHT30;60354;47.798;12.472;2023-03-11T02:48:00;2.67;78.22
72380;SHT30;60354;47.798;12.472;2023-03-11T02:50:29;2.60;78.41
72380;SHT30;60354;47.798;12.472;2023-03-11T02:52:55;2.67;79.25
72380;SHT30;60354;47.798;12.472;2023-03-11T02:55:21;2.64;78.46
72380;SHT30;60354;47.798;12.472;2023-03-11T02:57:47;2.60;78.24
72380;SHT30;60354;47.798;12.472;2023-03-11T03:00:15;2.64;77.30
72380;SHT30;60354;47.798;12.472;2023-03-11T03:02:47;2.50;77.03
72380;SHT30;60354;47.798;12.472;2023-03-11T03:05:18;2.46;76.12
72380;SHT30;60354;47.798;12.472;2023-03-11T03:07:47;2.54;76.49
72380;SHT30;60354;47.798;12.472;2023-03-11T03:10:13;2.58;77.90
72380;SHT30;60354;47.798;12.472;2023-03-11T03:12:39;2.51;76.21
72380;SHT30;60354;47.798;12.472;2023-03-11T03:15:05;2.48;76.09
72380;SHT30;60354;47.798;12.472;2023-03-11T03:17:31;2.48;75.59
72380;SHT30;60354;47.798;12.472;2023-03-11T03:19:57;2.48;76.20
72380;SHT30;60354;47.798;12.472;2023-03-11T03:22:23;2.41;75.56
72380;SHT30;60354;47.798;12.472;2023-03-11T03:24:52;2.44;75.59
72380;SHT30;60354;47.798;12.472;2023-03-11T03:27:18;2.47;75.99
72380;SHT30;60354;47.798;12.472;2023-03-11T03:29:44;2.53;76.24
72380;SHT30;60354;47.798;12.472;2023-03-11T03:32:10;2.53;76.62
72380;SHT30;60354;47.798;12.472;2023-03-11T03:34:36;2.46;76.31
72380;SHT30;60354;47.798;12.472;2023-03-11T03:37:01;2.47;75.92
72380;SHT30;60354;47.798;12.472;2023-03-11T03:39:27;2.41;76.42
72380;SHT30;60354;47.798;12.472;2023-03-11T03:41:52;2.41;76.48
72380;SHT30;60354;47.798;12.472;2023-03-11T03:44:20;2.41;76.58
72380;SHT30;60354;47.798;12.472;2023-03-11T03:46:46;2.41;77.44
72380;SHT30;60354;47.798;12.472;2023-03-11T03:49:11;2.41;79.13
72380;SHT30;60354;47.798;12.472;2023-03-11T03:51:38;2.44;78.43
72380;SHT30;60354;47.798;12.472;2023-03-11T03:54:08;2.37;79.79
72380;SHT30;60354;47.798;12.472;2023-03-11T03:56:34;2.26;81.28
72380;SHT30;60354;47.798;12.472;2023-03-11T03:59:00;2.20;82.04
72380;SHT30;60354;47.798;12.472;2023-03-11T04:01:32;2.13;83.51
72380;SHT30;60354;47.798;12.472;2023-03-11T04:03:58;2.17;83.55
72380;SHT30;60354;47.798;12.472;2023-03-11T04:06:26;2.23;84.29
72380;SHT30;60354;47.798;12.472;2023-03-11T04:08:59;2.16;83.42
72380;SHT30;60354;47.798;12.472;2023-03-11T04:11:30;2.16;83.48
72380;SHT30;60354;47.798;12.472;2023-03-11T04:13:56;2.17;83.46
72380;SHT30;60354;47.798;12.472;2023-03-11T04:16:23;2.20;83.77
72380;SHT30;60354;47.798;12.472;2023-03-11T04:18:51;2.27;84.60
72380;SHT30;60354;47.798;12.472;2023-03-11T04:21:18;2.34;84.35
72380;SHT30;60354;47.798;12.472;2023-03-11T04:23:45;2.25;83.25
72380;SHT30;60354;47.798;12.472;2023-03-11T04:26:13;2.25;83.23
72380;SHT30;60354;47.798;12.472;2023-03-11T04:28:39;2.06;82.23
72380;SHT30;60354;47.798;12.472;2023-03-11T04:31:05;2.09;82.65
72380;SHT30;60354;47.798;12.472;2023-03-11T04:33:32;2.02;82.89
72380;SHT30;60354;47.798;12.472;2023-03-11T04:35:58;2.01;83.76
72380;SHT30;60354;47.798;12.472;2023-03-11T04:38:24;1.95;83.54
72380;SHT30;60354;47.798;12.472;2023-03-11T04:40:50;2.05;82.84
72380;SHT30;60354;47.798;12.472;2023-03-11T04:43:16;2.09;82.99
72380;SHT30;60354;47.798;12.472;2023-03-11T04:45:43;2.06;83.74
72380;SHT30;60354;47.798;12.472;2023-03-11T04:48:09;2.09;83.33
72380;SHT30;60354;47.798;12.472;2023-03-11T04:50:37;2.07;83.63
72380;SHT30;60354;47.798;12.472;2023-03-11T04:53:02;2.03;84.43
72380;SHT30;60354;47.798;12.472;2023-03-11T04:55:28;2.02;83.56
72380;SHT30;60354;47.798;12.472;2023-03-11T04:57:53;2.15;85.33
72380;SHT30;60354;47.798;12.472;2023-03-11T05:00:20;2.10;84.83
72380;SHT30;60354;47.798;12.472;2023-03-11T05:02:52;2.09;84.15
72380;SHT30;60354;47.798;12.472;2023-03-11T05:05:17;2.02;83.32
72380;SHT30;60354;47.798;12.472;2023-03-11T05:07:44;2.12;84.34
72380;SHT30;60354;47.798;12.472;2023-03-11T05:10:12;2.10;84.28
72380;SHT30;60354;47.798;12.472;2023-03-11T05:12:37;2.07;83.32
72380;SHT30;60354;47.798;12.472;2023-03-11T05:15:03;2.07;82.78
72380;SHT30;60354;47.798;12.472;2023-03-11T05:17:29;2.01;82.24
72380;SHT30;60354;47.798;12.472;2023-03-11T05:19:55;2.07;83.50
72380;SHT30;60354;47.798;12.472;2023-03-11T05:22:26;1.96;81.97
72380;SHT30;60354;47.798;12.472;2023-03-11T05:24:52;1.99;82.86
72380;SHT30;60354;47.798;12.472;2023-03-11T05:27:18;2.02;82.76
72380;SHT30;60354;47.798;12.472;2023-03-11T05:29:47;2.03;81.32
72380;SHT30;60354;47.798;12.472;2023-03-11T05:32:13;2.09;81.53
72380;SHT30;60354;47.798;12.472;2023-03-11T05:34:41;2.13;82.95
72380;SHT30;60354;47.798;12.472;2023-03-11T05:37:06;2.09;81.80
72380;SHT30;60354;47.798;12.472;2023-03-11T05:39:33;2.05;79.38
72380;SHT30;60354;47.798;12.472;2023-03-11T05:41:58;2.10;81.36
72380;SHT30;60354;47.798;12.472;2023-03-11T05:44:25;2.05;79.99
72380;SHT30;60354;47.798;12.472;2023-03-11T05:46:51;1.99;79.27
72380;SHT30;60354;47.798;12.472;2023-03-11T05:49:17;1.98;79.58
72380;SHT30;60354;47.798;12.472;2023-03-11T05:51:43;2.01;77.62
72380;SHT30;60354;47.798;12.472;2023-03-11T05:54:08;2.02;78.23
72380;SHT30;60354;47.798;12.472;2023-03-11T05:56:41;1.98;77.07
72380;SHT30;60354;47.798;12.472;2023-03-11T05:59:10;2.05;78.04
72380;SHT30;60354;47.798;12.472;2023-03-11T06:01:36;2.07;77.01
72380;SHT30;60354;47.798;12.472;2023-03-11T06:04:02;2.07;75.09
72380;SHT30;60354;47.798;12.472;2023-03-11T06:06:28;2.09;74.83
72380;SHT30;60354;47.798;12.472;2023-03-11T06:08:55;2.13;75.30
72380;SHT30;60354;47.798;12.472;2023-03-11T06:11:22;2.19;75.32
72380;SHT30;60354;47.798;12.472;2023-03-11T06:13:52;2.09;75.45
72380;SHT30;60354;47.798;12.472;2023-03-11T06:16:19;2.05;73.27
72380;SHT30;60354;47.798;12.472;2023-03-11T06:18:45;2.09;75.91
72380;SHT30;60354;47.798;12.472;2023-03-11T06:21:16;1.85;74.53
72380;SHT30;60354;47.798;12.472;2023-03-11T06:23:42;1.85;75.25
72380;SHT30;60354;47.798;12.472;2023-03-11T06:26:09;1.89;75.25
72380;SHT30;60354;47.798;12.472;2023-03-11T06:28:44;1.99;74.55
72380;SHT30;60354;47.798;12.472;2023-03-11T06:31:16;2.01;74.69
72380;SHT30;60354;47.798;12.472;2023-03-11T06:33:44;2.05;75.20
72380;SHT30;60354;47.798;12.472;2023-03-11T06:36:12;2.06;72.42
72380;SHT30;60354;47.798;12.472;2023-03-11T06:38:38;2.05;73.39
72380;SHT30;60354;47.798;12.472;2023-03-11T06:41:05;2.03;73.96
72380;SHT30;60354;47.798;12.472;2023-03-11T06:43:32;2.06;73.67
72380;SHT30;60354;47.798;12.472;2023-03-11T06:45:59;2.13;74.82
72380;SHT30;60354;47.798;12.472;2023-03-11T06:48:26;2.15;73.15
72380;SHT30;60354;47.798;12.472;2023-03-11T06:50:57;2.07;71.76
72380;SHT30;60354;47.798;12.472;2023-03-11T06:53:27;2.06;73.15
72380;SHT30;60354;47.798;12.472;2023-03-11T06:56:00;2.03;72.27
72380;SHT30;60354;47.798;12.472;2023-03-11T06:58:27;2.09;73.60
72380;SHT30;60354;47.798;12.472;2023-03-11T07:00:52;2.05;72.89
72380;SHT30;60354;47.798;12.472;2023-03-11T07:03:18;2.16;73.54
72380;SHT30;60354;47.798;12.472;2023-03-11T07:05:44;2.17;75.43
72380;SHT30;60354;47.798;12.472;2023-03-11T07:08:10;2.23;74.84
72380;SHT30;60354;47.798;12.472;2023-03-11T07:10:36;2.26;73.95
72380;SHT30;60354;47.798;12.472;2023-03-11T07:13:02;2.32;76.39
72380;SHT30;60354;47.798;12.472;2023-03-11T07:15:27;2.12;72.83
72380;SHT30;60354;47.798;12.472;2023-03-11T07:17:53;2.10;73.48
72380;SHT30;60354;47.798;12.472;2023-03-11T07:20:18;2.15;74.00
72380;SHT30;60354;47.798;12.472;2023-03-11T07:22:44;2.15;74.31
72380;SHT30;60354;47.798;12.472;2023-03-11T07:25:09;2.06;74.90
72380;SHT30;60354;47.798;12.472;2023-03-11T07:27:35;2.06;77.75
72380;SHT30;60354;47.798;12.472;2023-03-11T07:30:01;2.13;76.09
72380;SHT30;60354;47.798;12.472;2023-03-11T07:32:26;2.10;76.99
72380;SHT30;60354;47.798;12.472;2023-03-11T07:34:52;1.99;76.72
72380;SHT30;60354;47.798;12.472;2023-03-11T07:37:18;2.02;76.66
72380;SHT30;60354;47.798;12.472;2023-03-11T07:39:43;1.92;77.14
72380;SHT30;60354;47.798;12.472;2023-03-11T07:42:09;1.89;77.79
72380;SHT30;60354;47.798;12.472;2023-03-11T07:44:35;1.81;75.16
72380;SHT30;60354;47.798;12.472;2023-03-11T07:47:04;1.86;74.14
72380;SHT30;60354;47.798;12.472;2023-03-11T07:49:30;1.89;73.65
72380;SHT30;60354;47.798;12.472;2023-03-11T07:51:56;1.86;74.66
72380;SHT30;60354;47.798;12.472;2023-03-11T07:54:22;1.65;73.75
72380;SHT30;60354;47.798;12.472;2023-03-11T07:56:47;1.64;73.11
72380;SHT30;60354;47.798;12.472;2023-03-11T07:59:12;1.64;74.80
72380;SHT30;60354;47.798;12.472;2023-03-11T08:01:38;1.62;74.38
72380;SHT30;60354;47.798;12.472;2023-03-11T08:04:09;1.79;75.92
72380;SHT30;60354;47.798;12.472;2023-03-11T08:06:36;1.76;72.91
72380;SHT30;60354;47.798;12.472;2023-03-11T08:09:05;1.75;75.27
72380;SHT30;60354;47.798;12.472;2023-03-11T08:11:31;1.78;74.69
72380;SHT30;60354;47.798;12.472;2023-03-11T08:13:57;1.86;76.46
72380;SHT30;60354;47.798;12.472;2023-03-11T08:16:23;1.95;73.94
72380;SHT30;60354;47.798;12.472;2023-03-11T08:18:49;1.95;74.09
72380;SHT30;60354;47.798;12.472;2023-03-11T08:21:18;1.96;73.55
72380;SHT30;60354;47.798;12.472;2023-03-11T08:23:44;1.99;74.59
72380;SHT30;60354;47.798;12.472;2023-03-11T08:26:18;1.95;74.50
72380;SHT30;60354;47.798;12.472;2023-03-11T08:28:44;1.95;72.98
72380;SHT30;60354;47.798;12.472;2023-03-11T08:33:39;1.92;72.88
72380;SHT30;60354;47.798;12.472;2023-03-11T08:36:05;1.99;73.33
72380;SHT30;60354;47.798;12.472;2023-03-11T08:38:31;1.96;72.77
72380;SHT30;60354;47.798;12.472;2023-03-11T08:40:56;2.34;79.29
72380;SHT30;60354;47.798;12.472;2023-03-11T08:43:22;2.22;69.89
72380;SHT30;60354;47.798;12.472;2023-03-11T08:45:47;2.20;71.37
72380;SHT30;60354;47.798;12.472;2023-03-11T08:48:13;2.09;71.76
72380;SHT30;60354;47.798;12.472;2023-03-11T08:50:41;2.03;70.80
72380;SHT30;60354;47.798;12.472;2023-03-11T08:53:07;2.15;73.38
72380;SHT30;60354;47.798;12.472;2023-03-11T08:55:33;2.17;72.58
72380;SHT30;60354;47.798;12.472;2023-03-11T08:57:59;2.26;72.12
72380;SHT30;60354;47.798;12.472;2023-03-11T09:00:24;2.38;72.55
72380;SHT30;60354;47.798;12.472;2023-03-11T09:02:50;2.47;73.98
72380;SHT30;60354;47.798;12.472;2023-03-11T09:05:16;2.57;72.00
72380;SHT30;60354;47.798;12.472;2023-03-11T09:07:41;2.64;71.46
72380;SHT30;60354;47.798;12.472;2023-03-11T09:10:07;2.64;71.40
72380;SHT30;60354;47.798;12.472;2023-03-11T09:12:33;2.64;71.40
72380;SHT30;60354;47.798;12.472;2023-03-11T09:14:58;2.54;68.56
72380;SHT30;60354;47.798;12.472;2023-03-11T09:17:24;2.46;71.32
72380;SHT30;60354;47.798;12.472;2023-03-11T09:19:49;2.37;71.44
72380;SHT30;60354;47.798;12.472;2023-03-11T09:22:15;2.36;72.03
72380;SHT30;60354;47.798;12.472;2023-03-11T09:24:40;2.36;71.51
72380;SHT30;60354;47.798;12.472;2023-03-11T09:27:06;2.32;70.67
72380;SHT30;60354;47.798;12.472;2023-03-11T09:29:31;2.38;71.78
72380;SHT30;60354;47.798;12.472;2023-03-11T09:31:57;2.29;70.72
72380;SHT30;60354;47.798;12.472;2023-03-11T09:34:23;2.32;71.18
72380;SHT30;60354;47.798;12.472;2023-03-11T09:36:48;2.30;70.70
72380;SHT30;60354;47.798;12.472;2023-03-11T09:39:14;2.29;69.49
72380;SHT30;60354;47.798;12.472;2023-03-11T09:47:42;2.64;83.00
72380;SHT30;60354;47.798;12.472;2023-03-11T09:55:18;2.51;71.29
72380;SHT30;60354;47.798;12.472;2023-03-11T09:57:45;2.37;70.64
72380;SHT30;60354;47.798;12.472;2023-03-11T10:00:12;2.34;70.81
72380;SHT30;60354;47.798;12.472;2023-03-11T10:02:41;2.43;70.61
72380;SHT30;60354;47.798;12.472;2023-03-11T10:05:14;2.26;68.48
72380;SHT30;60354;47.798;12.472;2023-03-11T10:07:47;2.43;72.01
72380;SHT30;60354;47.798;12.472;2023-03-11T10:10:15;2.67;68.21
72380;SHT30;60354;47.798;12.472;2023-03-11T10:20:44;2.83;68.47
72380;SHT30;60354;47.798;12.472;2023-03-11T10:26:20;2.73;67.43
72380;SHT30;60354;47.798;12.472;2023-03-11T10:28:59;2.73;70.07
72380;SHT30;60354;47.798;12.472;2023-03-11T10:31:59;2.80;67.86
72380;SHT30;60354;47.798;12.472;2023-03-11T10:34:33;2.78;67.32
72380;SHT30;60354;47.798;12.472;2023-03-11T10:37:40;2.88;68.32
72380;SHT30;60354;47.798;12.472;2023-03-11T10:40:09;3.02;66.88
72380;SHT30;60354;47.798;12.472;2023-03-11T10:42:40;3.22;67.39
72380;SHT30;60354;47.798;12.472;2023-03-11T10:45:12;3.30;66.86
72380;SHT30;60354;47.798;12.472;2023-03-11T10:47:38;3.35;65.72
72380;SHT30;60354;47.798;12.472;2023-03-11T10:50:03;3.39;66.14
72380;SHT30;60354;47.798;12.472;2023-03-11T10:52:29;3.32;67.25
72380;SHT30;60354;47.798;12.472;2023-03-11T10:55:00;3.28;66.94
72380;SHT30;60354;47.798;12.472;2023-03-11T10:59:57;3.32;66.68
72380;SHT30;60354;47.798;12.472;2023-03-11T11:07:37;3.43;65.69
72380;SHT30;60354;47.798;12.472;2023-03-11T11:10:21;3.47;64.67
72380;SHT30;60354;47.798;12.472;2023-03-11T11:15:32;3.47;65.52
72380;SHT30;60354;47.798;12.472;2023-03-11T11:20:30;3.33;65.48
72380;SHT30;60354;47.798;12.472;2023-03-11T11:22:58;3.28;65.49
72380;SHT30;60354;47.798;12.472;2023-03-11T11:25:38;3.32;65.73
72380;SHT30;60354;47.798;12.472;2023-03-11T11:28:15;3.23;65.48
72380;SHT30;60354;47.798;12.472;2023-03-11T11:30:55;3.43;66.01
72380;SHT30;60354;47.798;12.472;2023-03-11T11:33:29;3.64;66.73
72380;SHT30;60354;47.798;12.472;2023-03-11T11:35:58;3.62;64.79
72380;SHT30;60354;47.798;12.472;2023-03-11T11:38:27;3.83;64.50
72380;SHT30;60354;47.798;12.472;2023-03-11T11:40:55;4.07;63.92
72380;SHT30;60354;47.798;12.472;2023-03-11T11:43:35;4.14;62.48
72380;SHT30;60354;47.798;12.472;2023-03-11T11:46:09;4.21;62.20
72380;SHT30;60354;47.798;12.472;2023-03-11T11:51:57;4.44;64.01
72380;SHT30;60354;47.798;12.472;2023-03-11T11:54:32;4.53;70.68
72380;SHT30;60354;47.798;12.472;2023-03-11T11:57:00;4.50;61.13
72380;SHT30;60354;47.798;12.472;2023-03-11T11:59:32;4.29;61.29
72380;SHT30;60354;47.798;12.472;2023-03-11T12:08:08;4.32;60.73
72380;SHT30;60354;47.798;12.472;2023-03-11T12:15:48;4.59;62.65
72380;SHT30;60354;47.798;12.472;2023-03-11T12:18:20;4.60;60.67
72380;SHT30;60354;47.798;12.472;2023-03-11T12:20:52;4.79;61.48
72380;SHT30;60354;47.798;12.472;2023-03-11T12:31:08;4.56;60.76
72380;SHT30;60354;47.798;12.472;2023-03-11T12:36:04;4.50;60.54
72380;SHT30;60354;47.798;12.472;2023-03-11T12:38:39;4.49;60.94
72380;SHT30;60354;47.798;12.472;2023-03-11T12:46:09;4.53;59.70
72380;SHT30;60354;47.798;12.472;2023-03-11T12:53:54;4.56;59.14
72380;SHT30;60354;47.798;12.472;2023-03-11T12:56:42;4.70;60.87
72380;SHT30;60354;47.798;12.472;2023-03-11T13:04:46;4.84;60.42
72380;SHT30;60354;47.798;12.472;2023-03-11T13:12:45;4.60;60.64
72380;SHT30;60354;47.798;12.472;2023-03-11T13:26:08;5.09;58.92
72380;SHT30;60354;47.798;12.472;2023-03-11T13:34:03;5.55;56.40
72380;SHT30;60354;47.798;12.472;2023-03-11T13:40:14;5.63;57.02
72380;SHT30;60354;47.798;12.472;2023-03-11T13:42:43;5.52;56.98
72380;SHT30;60354;47.798;12.472;2023-03-11T13:45:25;5.55;56.54
72380;SHT30;60354;47.798;12.472;2023-03-11T13:47:52;5.37;58.77
72380;SHT30;60354;47.798;12.472;2023-03-11T13:50:40;5.34;58.19
72380;SHT30;60354;47.798;12.472;2023-03-11T13:53:16;5.45;58.95
72380;SHT30;60354;47.798;12.472;2023-03-11T13:55:44;5.41;58.26
72380;SHT30;60354;47.798;12.472;2023-03-11T13:58:29;5.40;57.91
72380;SHT30;60354;47.798;12.472;2023-03-11T14:03:21;5.13;57.42
72380;SHT30;60354;47.798;12.472;2023-03-11T14:05:55;5.26;58.48
72380;SHT30;60354;47.798;12.472;2023-03-11T14:08:25;5.23;58.45
72380;SHT30;60354;47.798;12.472;2023-03-11T14:10:54;5.35;57.07
72380;SHT30;60354;47.798;12.472;2023-03-11T14:13:20;5.26;57.23
72380;SHT30;60354;47.798;12.472;2023-03-11T14:15:57;5.26;58.27
72380;SHT30;60354;47.798;12.472;2023-03-11T14:18:30;5.34;58.09
72380;SHT30;60354;47.798;12.472;2023-03-11T14:20:56;5.35;57.70
72380;SHT30;60354;47.798;12.472;2023-03-11T14:23:27;5.28;57.15
72380;SHT30;60354;47.798;12.472;2023-03-11T14:26:00;5.34;58.33
72380;SHT30;60354;47.798;12.472;2023-03-11T14:28:26;5.24;58.49
72380;SHT30;60354;47.798;12.472;2023-03-11T14:30:56;5.27;57.99
72380;SHT30;60354;47.798;12.472;2023-03-11T14:33:22;5.28;58.67
72380;SHT30;60354;47.798;12.472;2023-03-11T14:35:56;5.44;59.18
72380;SHT30;60354;47.798;12.472;2023-03-11T14:38:25;5.56;58.65
72380;SHT30;60354;47.798;12.472;2023-03-11T14:40:56;5.45;59.08
72380;SHT30;60354;47.798;12.472;2023-03-11T14:43:23;5.47;57.59
72380;SHT30;60354;47.798;12.472;2023-03-11T14:45:50;5.38;58.58
72380;SHT30;60354;47.798;12.472;2023-03-11T14:50:47;5.41;58.33
72380;SHT30;60354;47.798;12.472;2023-03-11T14:53:42;5.40;57.99
72380;SHT30;60354;47.798;12.472;2023-03-11T14:56:15;5.37;58.14
72380;SHT30;60354;47.798;12.472;2023-03-11T14:58:46;5.38;58.19
72380;SHT30;60354;47.798;12.472;2023-03-11T15:01:16;5.35;58.68
72380;SHT30;60354;47.798;12.472;2023-03-11T15:03:59;5.44;57.80
72380;SHT30;60354;47.798;12.472;2023-03-11T15:06:29;5.41;59.85
72380;SHT30;60354;47.798;12.472;2023-03-11T15:09:17;5.30;59.80
72380;SHT30;60354;47.798;12.472;2023-03-11T15:12:03;5.11;59.07
72380;SHT30;60354;47.798;12.472;2023-03-11T15:14:34;5.04;61.06
72380;SHT30;60354;47.798;12.472;2023-03-11T15:19:41;5.01;60.81
72380;SHT30;60354;47.798;12.472;2023-03-11T15:22:26;4.99;60.89
72380;SHT30;60354;47.798;12.472;2023-03-11T15:24:58;5.09;61.49
72380;SHT30;60354;47.798;12.472;2023-03-11T15:27:37;5.10;60.14
72380;SHT30;60354;47.798;12.472;2023-03-11T15:30:19;5.04;60.27
72380;SHT30;60354;47.798;12.472;2023-03-11T15:32:45;4.81;58.43
72380;SHT30;60354;47.798;12.472;2023-03-11T15:35:13;4.96;59.80
72380;SHT30;60354;47.798;12.472;2023-03-11T15:37:40;5.01;59.96
72380;SHT30;60354;47.798;12.472;2023-03-11T15:40:11;5.17;62.31
72380;SHT30;60354;47.798;12.472;2023-03-11T15:42:37;5.17;60.32
72380;SHT30;60354;47.798;12.472;2023-03-11T15:45:07;5.21;60.66
72380;SHT30;60354;47.798;12.472;2023-03-11T15:47:33;5.26;61.25
72380;SHT30;60354;47.798;12.472;2023-03-11T15:50:24;5.26;61.20
72380;SHT30;60354;47.798;12.472;2023-03-11T15:52:53;5.23;61.09
72380;SHT30;60354;47.798;12.472;2023-03-11T15:55:19;5.24;59.05
72380;SHT30;60354;47.798;12.472;2023-03-11T15:57:49;5.20;60.55
72380;SHT30;60354;47.798;12.472;2023-03-11T16:00:22;5.09;61.43
72380;SHT30;60354;47.798;12.472;2023-03-11T16:02:48;5.10;61.41
72380;SHT30;60354;47.798;12.472;2023-03-11T16:05:17;5.14;61.43
72380;SHT30;60354;47.798;12.472;2023-03-11T16:07:42;5.09;62.61
72380;SHT30;60354;47.798;12.472;2023-03-11T16:10:09;5.06;62.89
72380;SHT30;60354;47.798;12.472;2023-03-11T16:12:35;5.09;62.80
72380;SHT30;60354;47.798;12.472;2023-03-11T16:15:01;5.00;61.40
72380;SHT30;60354;47.798;12.472;2023-03-11T16:17:26;5.00;61.75
72380;SHT30;60354;47.798;12.472;2023-03-11T16:19:52;4.89;60.04
72380;SHT30;60354;47.798;12.472;2023-03-11T16:22:20;4.73;60.09
72380;SHT30;60354;47.798;12.472;2023-03-11T16:24:51;4.59;60.61
72380;SHT30;60354;47.798;12.472;2023-03-11T16:27:17;4.63;58.83
72380;SHT30;60354;47.798;12.472;2023-03-11T16:29:46;4.46;60.38
72380;SHT30;60354;47.798;12.472;2023-03-11T16:32:12;4.46;62.37
72380;SHT30;60354;47.798;12.472;2023-03-11T16:34:38;4.39;60.81
72380;SHT30;60354;47.798;12.472;2023-03-11T16:37:05;4.44;63.10
72380;SHT30;60354;47.798;12.472;2023-03-11T16:39:30;4.37;60.24
72380;SHT30;60354;47.798;12.472;2023-03-11T16:41:56;4.34;63.08
72380;SHT30;60354;47.798;12.472;2023-03-11T16:44:22;4.29;63.34
72380;SHT30;60354;47.798;12.472;2023-03-11T16:46:47;4.31;63.27
72380;SHT30;60354;47.798;12.472;2023-03-11T16:49:12;4.25;61.69
72380;SHT30;60354;47.798;12.472;2023-03-11T16:51:38;4.14;62.23
72380;SHT30;60354;47.798;12.472;2023-03-11T16:54:04;4.18;63.13
72380;SHT30;60354;47.798;12.472;2023-03-11T16:56:29;4.14;61.21
72380;SHT30;60354;47.798;12.472;2023-03-11T16:58:55;4.15;63.49
72380;SHT30;60354;47.798;12.472;2023-03-11T17:01:20;4.14;64.01
72380;SHT30;60354;47.798;12.472;2023-03-11T17:03:48;4.15;60.87
72380;SHT30;60354;47.798;12.472;2023-03-11T17:06:15;4.01;62.16
72380;SHT30;60354;47.798;12.472;2023-03-11T17:08:41;4.11;65.72
72380;SHT30;60354;47.798;12.472;2023-03-11T17:11:21;4.15;63.86
72380;SHT30;60354;47.798;12.472;2023-03-11T17:13:47;4.15;62.66
72380;SHT30;60354;47.798;12.472;2023-03-11T17:16:12;4.24;64.27
72380;SHT30;60354;47.798;12.472;2023-03-11T17:18:38;4.14;61.65
72380;SHT30;60354;47.798;12.472;2023-03-11T17:21:05;4.04;60.96
72380;SHT30;60354;47.798;12.472;2023-03-11T17:23:31;4.00;64.62
72380;SHT30;60354;47.798;12.472;2023-03-11T17:25:56;3.93;64.77
72380;SHT30;60354;47.798;12.472;2023-03-11T17:28:22;3.77;65.42
72380;SHT30;60354;47.798;12.472;2023-03-11T17:30:48;3.71;65.81
72380;SHT30;60354;47.798;12.472;2023-03-11T17:33:13;3.74;65.65